createdAt,value
2024-05-09T00:00:59.166Z,22.97
2024-05-09T00:01:59.170Z,22.97
2024-05-09T00:02:59.194Z,22.97
2024-05-09T00:03:59.258Z,22.96
2024-05-09T00:04:59.415Z,22.96
2024-05-09T00:05:59.412Z,22.97
2024-05-09T00:06:59.341Z,22.96
2024-05-09T00:07:59.477Z,22.96
2024-05-09T00:08:59.422Z,22.96
2024-05-09T00:09:59.470Z,22.96
2024-05-09T00:10:59.611Z,22.96
2024-05-09T00:11:59.741Z,22.96
2024-05-09T00:12:59.601Z,22.96
2024-05-09T00:13:59.700Z,22.96
2024-05-09T00:14:59.701Z,22.96
2024-05-09T00:15:59.762Z,22.96
2024-05-09T00:16:59.860Z,22.96
2024-05-09T00:18:05.750Z,22.95
2024-05-09T00:19:00.146Z,22.95
2024-05-09T00:19:59.986Z,22.94
2024-05-09T00:21:00.096Z,22.95
2024-05-09T00:21:59.940Z,22.95
2024-05-09T00:23:00.006Z,22.95
2024-05-09T00:23:59.939Z,22.95
2024-05-09T00:24:59.964Z,22.95
2024-05-09T00:26:00.002Z,22.95
2024-05-09T00:26:59.941Z,22.94
2024-05-09T00:27:59.939Z,22.95
2024-05-09T00:29:00.002Z,22.95
2024-05-09T00:29:59.938Z,22.95
2024-05-09T00:30:59.962Z,22.94
2024-05-09T00:32:00.188Z,22.94
2024-05-09T00:33:00.069Z,22.94
2024-05-09T00:34:00.131Z,22.94
2024-05-09T00:34:59.999Z,22.93
2024-05-09T00:35:59.950Z,22.94
2024-05-09T00:36:59.944Z,22.94
2024-05-09T00:38:00.231Z,22.94
2024-05-09T00:38:59.947Z,22.94
2024-05-09T00:39:59.949Z,22.93
2024-05-09T00:41:00.010Z,22.93
2024-05-09T00:42:04.983Z,22.93
2024-05-09T00:42:59.952Z,22.93
2024-05-09T00:44:00.005Z,22.93
2024-05-09T00:44:59.939Z,22.92
2024-05-09T00:45:59.963Z,22.92
2024-05-09T00:46:59.979Z,22.93
2024-05-09T00:48:00.249Z,22.92
2024-05-09T00:49:00.002Z,22.93
2024-05-09T00:49:59.989Z,22.93
2024-05-09T00:51:00.110Z,22.93
2024-05-09T00:52:00.001Z,22.93
2024-05-09T00:53:00.075Z,22.93
2024-05-09T00:54:00.098Z,22.93
2024-05-09T00:55:00.170Z,22.92
2024-05-09T00:56:00.207Z,22.93
2024-05-09T00:57:00.207Z,22.93
2024-05-09T00:58:00.264Z,22.93
2024-05-09T00:59:00.312Z,22.92
2024-05-09T01:00:00.399Z,22.92
2024-05-09T01:01:00.483Z,22.92
2024-05-09T01:02:00.496Z,22.92
2024-05-09T01:03:00.646Z,22.92
2024-05-09T01:04:00.653Z,22.91
2024-05-09T01:05:00.746Z,22.92
2024-05-09T01:06:01.479Z,22.93
2024-05-09T01:07:00.818Z,22.92
2024-05-09T01:08:00.958Z,22.92
2024-05-09T01:09:00.936Z,22.92
2024-05-09T01:10:01.025Z,22.92
2024-05-09T01:11:01.464Z,22.92
2024-05-09T01:12:01.417Z,22.92
2024-05-09T01:13:01.302Z,22.92
2024-05-09T01:14:01.365Z,22.92
2024-05-09T01:15:01.445Z,22.92
2024-05-09T01:16:01.522Z,22.91
2024-05-09T01:17:01.659Z,22.91
2024-05-09T01:18:02.168Z,22.92
2024-05-09T01:19:01.832Z,22.91
2024-05-09T01:20:01.927Z,22.91
2024-05-09T01:21:02.074Z,22.92
2024-05-09T01:22:07.065Z,22.91
2024-05-09T01:23:02.136Z,22.90
2024-05-09T01:24:02.046Z,22.90
2024-05-09T01:25:02.067Z,22.91
2024-05-09T01:26:02.059Z,22.91
2024-05-09T01:27:02.120Z,22.90
2024-05-09T01:28:02.097Z,22.91
2024-05-09T01:29:02.113Z,22.91
2024-05-09T01:30:03.039Z,22.90
2024-05-09T01:31:02.043Z,22.90
2024-05-09T01:32:02.137Z,22.91
2024-05-09T01:33:02.287Z,22.90
2024-05-09T01:34:02.109Z,22.90
2024-05-09T01:35:02.113Z,22.90
2024-05-09T01:36:02.077Z,22.90
2024-05-09T01:37:02.073Z,22.90
2024-05-09T01:38:02.295Z,22.90
2024-05-09T01:39:02.084Z,22.89
2024-05-09T01:40:02.060Z,22.90
2024-05-09T01:41:02.140Z,22.90
2024-05-09T01:42:02.070Z,22.89
2024-05-09T01:43:02.077Z,22.89
2024-05-09T01:44:02.150Z,22.89
2024-05-09T01:45:02.062Z,22.89
2024-05-09T01:46:02.062Z,22.89
2024-05-09T01:47:02.161Z,22.89
2024-05-09T01:48:02.785Z,22.90
2024-05-09T01:49:02.172Z,22.89
2024-05-09T01:50:02.186Z,22.89
2024-05-09T01:51:02.175Z,22.88
2024-05-09T01:52:02.097Z,22.90
2024-05-09T01:53:02.132Z,22.89
2024-05-09T01:54:02.092Z,22.88
2024-05-09T01:55:05.683Z,22.88
2024-05-09T01:56:02.175Z,22.88
2024-05-09T01:57:02.118Z,22.88
2024-05-09T01:58:02.124Z,22.88
2024-05-09T01:59:02.142Z,22.88
2024-05-09T02:00:02.094Z,22.88
2024-05-09T02:01:02.144Z,22.88
2024-05-09T02:02:02.378Z,22.88
2024-05-09T02:03:02.364Z,22.87
2024-05-09T02:04:02.637Z,22.87
2024-05-09T02:05:02.226Z,22.87
2024-05-09T02:06:02.304Z,22.87
2024-05-09T02:07:02.175Z,22.87
2024-05-09T02:08:02.241Z,22.88
2024-05-09T02:09:02.201Z,22.87
2024-05-09T02:10:04.977Z,22.87
2024-05-09T02:11:02.313Z,22.87
2024-05-09T02:12:02.304Z,22.87
2024-05-09T02:13:02.190Z,22.87
2024-05-09T02:14:02.285Z,22.87
2024-05-09T02:15:02.198Z,22.86
2024-05-09T02:16:02.222Z,22.87
2024-05-09T02:17:02.333Z,22.87
2024-05-09T02:18:02.401Z,22.86
2024-05-09T02:19:02.330Z,22.87
2024-05-09T02:20:02.665Z,22.87
2024-05-09T02:21:02.391Z,22.86
2024-05-09T02:22:02.194Z,22.86
2024-05-09T02:23:02.290Z,22.87
2024-05-09T02:24:02.260Z,22.86
2024-05-09T02:25:02.261Z,22.86
2024-05-09T02:26:02.280Z,22.86
2024-05-09T02:27:02.307Z,22.85
2024-05-09T02:28:02.234Z,22.86
2024-05-09T02:29:02.295Z,22.85
2024-05-09T02:30:02.273Z,22.86
2024-05-09T02:31:02.458Z,22.85
2024-05-09T02:32:02.300Z,22.86
2024-05-09T02:33:02.355Z,22.86
2024-05-09T02:34:26.921Z,22.83
2024-05-09T02:35:26.901Z,22.84
2024-05-09T02:36:26.810Z,22.83
2024-05-09T02:37:26.836Z,22.84
2024-05-09T02:38:26.843Z,22.84
2024-05-09T02:39:26.828Z,22.83
2024-05-09T02:40:35.570Z,22.83
2024-05-09T02:41:27.955Z,22.82
2024-05-09T02:42:26.855Z,22.82
2024-05-09T02:43:26.859Z,22.83
2024-05-09T02:44:26.936Z,22.83
2024-05-09T02:45:26.883Z,22.83
2024-05-09T02:46:26.929Z,22.83
2024-05-09T02:47:27.018Z,22.82
2024-05-09T02:48:27.100Z,22.82
2024-05-09T02:49:27.041Z,22.83
2024-05-09T02:50:34.424Z,22.82
2024-05-09T02:51:27.934Z,22.82
2024-05-09T02:52:26.954Z,22.83
2024-05-09T02:53:26.963Z,22.83
2024-05-09T02:54:26.932Z,22.82
2024-05-09T02:55:26.939Z,22.82
2024-05-09T02:56:27.052Z,22.82
2024-05-09T02:57:27.001Z,22.82
2024-05-09T02:58:26.993Z,22.82
2024-05-09T02:59:27.059Z,22.83
2024-05-09T03:00:35.210Z,22.82
2024-05-09T03:01:28.060Z,22.81
2024-05-09T03:02:27.077Z,22.82
2024-05-09T03:03:27.501Z,22.82
2024-05-09T03:04:27.048Z,22.82
2024-05-09T03:05:27.012Z,22.82
2024-05-09T03:06:27.019Z,22.83
2024-05-09T03:07:27.022Z,22.82
2024-05-09T03:08:27.110Z,22.82
2024-05-09T03:09:27.045Z,22.82
2024-05-09T03:11:27.235Z,22.82
2024-05-09T03:12:27.121Z,22.81
2024-05-09T03:13:27.224Z,22.81
2024-05-09T03:14:27.190Z,22.82
2024-05-09T03:15:27.213Z,22.81
2024-05-09T03:16:27.309Z,22.80
2024-05-09T03:17:27.591Z,22.81
2024-05-09T03:18:27.707Z,22.81
2024-05-09T03:19:27.681Z,22.81
2024-05-09T03:20:33.223Z,22.81
2024-05-09T03:21:28.692Z,22.80
2024-05-09T03:22:27.752Z,22.80
2024-05-09T03:23:27.692Z,22.80
2024-05-09T03:24:27.689Z,22.80
2024-05-09T03:25:27.697Z,22.80
2024-05-09T03:26:27.781Z,22.80
2024-05-09T03:27:27.701Z,22.80
2024-05-09T03:28:27.718Z,22.81
2024-05-09T03:29:27.746Z,22.80
2024-05-09T03:30:36.084Z,22.80
2024-05-09T03:31:28.812Z,22.80
2024-05-09T03:32:28.020Z,22.80
2024-05-09T03:33:28.083Z,22.80
2024-05-09T03:34:28.009Z,22.80
2024-05-09T03:35:27.961Z,22.80
2024-05-09T03:36:27.869Z,22.80
2024-05-09T03:37:27.875Z,22.80
2024-05-09T03:38:27.941Z,22.80
2024-05-09T03:39:27.862Z,22.79
2024-05-09T03:40:31.003Z,22.80
2024-05-09T03:41:27.909Z,22.80
2024-05-09T03:42:27.882Z,22.80
2024-05-09T03:43:27.873Z,22.80
2024-05-09T03:44:27.991Z,22.80
2024-05-09T03:45:27.863Z,22.80
2024-05-09T03:46:27.892Z,22.79
2024-05-09T03:47:28.175Z,22.80
2024-05-09T03:48:28.020Z,22.80
2024-05-09T03:49:27.950Z,22.79
2024-05-09T03:50:33.719Z,22.79
2024-05-09T03:51:28.905Z,22.79
2024-05-09T03:52:27.935Z,22.79
2024-05-09T03:53:28.046Z,22.78
2024-05-09T03:54:27.899Z,22.79
2024-05-09T03:55:27.891Z,22.78
2024-05-09T03:56:27.983Z,22.78
2024-05-09T03:57:27.940Z,22.78
2024-05-09T03:58:27.949Z,22.79
2024-05-09T03:59:28.034Z,22.78
2024-05-09T04:00:35.269Z,22.78
2024-05-09T04:01:29.003Z,22.78
2024-05-09T04:02:28.132Z,22.78
2024-05-09T04:03:28.266Z,22.78
2024-05-09T04:04:27.989Z,22.78
2024-05-09T04:05:28.080Z,22.78
2024-05-09T04:06:27.980Z,22.78
2024-05-09T04:07:27.986Z,22.78
2024-05-09T04:08:28.025Z,22.78
2024-05-09T04:09:27.990Z,22.78
2024-05-09T04:10:33.022Z,22.78
2024-05-09T04:11:29.064Z,22.77
2024-05-09T04:12:28.058Z,22.78
2024-05-09T04:13:28.015Z,22.77
2024-05-09T04:14:28.078Z,22.77
2024-05-09T04:15:28.019Z,22.77
2024-05-09T04:16:28.037Z,22.78
2024-05-09T04:17:28.238Z,22.78
2024-05-09T04:18:28.132Z,22.77
2024-05-09T04:19:28.257Z,22.78
2024-05-09T04:20:37.105Z,22.77
2024-05-09T04:21:29.054Z,22.77
2024-05-09T04:22:28.052Z,22.77
2024-05-09T04:23:28.168Z,22.77
2024-05-09T04:24:28.050Z,22.77
2024-05-09T04:25:28.052Z,22.77
2024-05-09T04:26:28.098Z,22.77
2024-05-09T04:27:28.072Z,22.76
2024-05-09T04:28:28.071Z,22.76
2024-05-09T04:29:28.238Z,22.76
2024-05-09T04:30:35.000Z,22.76
2024-05-09T04:31:29.122Z,22.76
2024-05-09T04:32:28.263Z,22.77
2024-05-09T04:33:28.301Z,22.76
2024-05-09T04:34:28.227Z,22.76
2024-05-09T04:35:28.279Z,22.75
2024-05-09T04:36:28.135Z,22.77
2024-05-09T04:37:28.131Z,22.76
2024-05-09T04:38:28.186Z,22.76
2024-05-09T04:39:28.153Z,22.75
2024-05-09T04:40:33.505Z,22.75
2024-05-09T04:41:29.246Z,22.75
2024-05-09T04:42:28.200Z,22.76
2024-05-09T04:43:28.191Z,22.75
2024-05-09T04:44:28.332Z,22.75
2024-05-09T04:45:28.198Z,22.76
2024-05-09T04:46:28.197Z,22.75
2024-05-09T04:47:28.405Z,22.74
2024-05-09T04:48:28.473Z,22.75
2024-05-09T04:49:28.275Z,22.76
2024-05-09T04:50:35.727Z,22.74
2024-05-09T04:51:29.192Z,22.75
2024-05-09T04:52:28.177Z,22.75
2024-05-09T04:53:28.206Z,22.75
2024-05-09T04:54:34.322Z,22.75
2024-05-09T04:55:29.183Z,22.74
2024-05-09T04:56:28.240Z,22.75
2024-05-09T04:57:28.193Z,22.75
2024-05-09T04:58:28.202Z,22.75
2024-05-09T04:59:28.249Z,22.75
2024-05-09T05:00:35.019Z,22.74
2024-05-09T05:01:29.281Z,22.75
2024-05-09T05:02:28.326Z,22.75
2024-05-09T05:03:28.366Z,22.75
2024-05-09T05:04:28.288Z,22.74
2024-05-09T05:05:28.322Z,22.75
2024-05-09T05:06:28.229Z,22.74
2024-05-09T05:07:28.233Z,22.76
2024-05-09T05:08:28.383Z,22.75
2024-05-09T05:09:28.242Z,22.75
2024-05-09T05:10:33.680Z,22.75
2024-05-09T05:11:29.348Z,22.74
2024-05-09T05:12:28.418Z,22.75
2024-05-09T05:13:28.273Z,22.75
2024-05-09T05:14:28.293Z,22.75
2024-05-09T05:15:28.227Z,22.74
2024-05-09T05:16:28.239Z,22.74
2024-05-09T05:17:28.369Z,22.75
2024-05-09T05:18:28.613Z,22.75
2024-05-09T05:19:28.292Z,22.74
2024-05-09T05:20:33.500Z,22.75
2024-05-09T05:21:29.294Z,22.74
2024-05-09T05:22:28.244Z,22.75
2024-05-09T05:23:28.362Z,22.75
2024-05-09T05:24:28.246Z,22.75
2024-05-09T05:25:28.250Z,22.75
2024-05-09T05:26:28.311Z,22.75
2024-05-09T05:27:28.309Z,22.75
2024-05-09T05:28:28.285Z,22.75
2024-05-09T05:29:28.304Z,22.75
2024-05-09T05:30:32.916Z,22.75
2024-05-09T05:31:29.362Z,22.75
2024-05-09T05:32:28.497Z,22.75
2024-05-09T05:33:28.533Z,22.75
2024-05-09T05:34:28.367Z,22.75
2024-05-09T05:35:28.564Z,22.75
2024-05-09T05:36:28.367Z,22.75
2024-05-09T05:37:28.439Z,22.75
2024-05-09T05:38:28.861Z,22.75
2024-05-09T05:39:28.391Z,22.75
2024-05-09T05:40:35.763Z,22.76
2024-05-09T05:41:29.422Z,22.74
2024-05-09T05:42:28.435Z,22.74
2024-05-09T05:43:28.375Z,22.74
2024-05-09T05:44:28.510Z,22.74
2024-05-09T05:45:28.386Z,22.75
2024-05-09T05:46:28.392Z,22.76
2024-05-09T05:47:28.516Z,22.75
2024-05-09T05:48:28.520Z,22.75
2024-05-09T05:49:28.508Z,22.75
2024-05-09T05:50:35.434Z,22.75
2024-05-09T05:51:29.494Z,22.75
2024-05-09T05:52:28.537Z,22.75
2024-05-09T05:53:28.590Z,22.75
2024-05-09T05:54:28.559Z,22.76
2024-05-09T05:55:28.515Z,22.76
2024-05-09T05:56:28.585Z,22.75
2024-05-09T05:57:29.080Z,22.75
2024-05-09T05:58:28.518Z,22.76
2024-05-09T05:59:28.591Z,22.76
2024-05-09T06:00:34.895Z,22.75
2024-05-09T06:01:29.555Z,22.75
2024-05-09T06:02:28.604Z,22.75
2024-05-09T06:03:28.645Z,22.75
2024-05-09T06:04:28.533Z,22.75
2024-05-09T06:05:28.568Z,22.75
2024-05-09T06:06:28.568Z,22.75
2024-05-09T06:07:28.583Z,22.76
2024-05-09T06:08:30.336Z,22.76
2024-05-09T06:09:28.594Z,22.76
2024-05-09T06:10:35.189Z,22.75
2024-05-09T06:11:29.675Z,22.75
2024-05-09T06:12:28.652Z,22.75
2024-05-09T06:13:28.571Z,22.75
2024-05-09T06:14:28.765Z,22.75
2024-05-09T06:15:28.592Z,22.75
2024-05-09T06:16:28.591Z,22.76
2024-05-09T06:17:28.725Z,22.76
2024-05-09T06:18:28.761Z,22.75
2024-05-09T06:19:28.777Z,22.76
2024-05-09T06:20:35.263Z,22.76
2024-05-09T06:21:29.754Z,22.76
2024-05-09T06:22:28.685Z,22.76
2024-05-09T06:23:28.756Z,22.77
2024-05-09T06:24:28.660Z,22.76
2024-05-09T06:25:28.651Z,22.77
2024-05-09T06:26:28.682Z,22.77
2024-05-09T06:27:28.675Z,22.76
2024-05-09T06:28:28.675Z,22.77
2024-05-09T06:29:28.846Z,22.77
2024-05-09T06:30:37.011Z,22.77
2024-05-09T06:31:29.731Z,22.77
2024-05-09T06:32:28.782Z,22.77
2024-05-09T06:33:29.045Z,22.77
2024-05-09T06:34:28.823Z,22.77
2024-05-09T06:35:28.815Z,22.77
2024-05-09T06:36:28.741Z,22.77
2024-05-09T06:37:28.739Z,22.78
2024-05-09T06:38:28.772Z,22.78
2024-05-09T06:39:28.751Z,22.78
2024-05-09T06:40:36.661Z,22.78
2024-05-09T06:41:29.928Z,22.77
2024-05-09T06:42:28.775Z,22.78
2024-05-09T06:43:28.780Z,22.78
2024-05-09T06:44:28.839Z,22.78
2024-05-09T06:45:28.806Z,22.78
2024-05-09T06:46:28.805Z,22.78
2024-05-09T06:47:28.973Z,22.78
2024-05-09T06:48:28.940Z,22.78
2024-05-09T06:49:28.925Z,22.79
2024-05-09T06:50:35.723Z,22.79
2024-05-09T06:51:29.791Z,22.78
2024-05-09T06:52:28.805Z,22.78
2024-05-09T06:53:28.924Z,22.78
2024-05-09T06:54:28.787Z,22.78
2024-05-09T06:55:28.794Z,22.79
2024-05-09T06:56:28.939Z,22.79
2024-05-09T06:57:28.871Z,22.79
2024-05-09T06:58:28.880Z,22.80
2024-05-09T06:59:29.137Z,22.79
2024-05-09T07:00:35.775Z,22.79
2024-05-09T07:01:29.903Z,22.80
2024-05-09T07:02:28.966Z,22.79
2024-05-09T07:03:28.969Z,22.80
2024-05-09T07:04:28.958Z,22.80
2024-05-09T07:05:28.887Z,22.80
2024-05-09T07:06:28.854Z,22.80
2024-05-09T07:07:28.853Z,22.80
2024-05-09T07:08:28.892Z,22.80
2024-05-09T07:09:28.896Z,22.80
2024-05-09T07:10:37.197Z,22.78
2024-05-09T07:11:36.621Z,22.79
2024-05-09T07:12:36.591Z,22.79
2024-05-09T07:13:36.602Z,22.80
2024-05-09T07:14:38.152Z,22.79
2024-05-09T07:15:36.598Z,22.79
2024-05-09T07:16:36.614Z,22.79
2024-05-09T07:17:36.754Z,22.80
2024-05-09T07:18:36.893Z,22.80
2024-05-09T07:19:36.722Z,22.80
2024-05-09T07:20:36.645Z,22.80
2024-05-09T07:21:36.631Z,22.80
2024-05-09T07:22:36.658Z,22.80
2024-05-09T07:23:36.808Z,22.81
2024-05-09T07:24:36.739Z,22.81
2024-05-09T07:25:36.768Z,22.81
2024-05-09T07:26:36.874Z,22.82
2024-05-09T07:27:36.859Z,22.83
2024-05-09T07:28:36.866Z,22.83
2024-05-09T07:29:38.682Z,22.83
2024-05-09T07:30:36.994Z,22.83
2024-05-09T07:31:37.030Z,22.83
2024-05-09T07:32:37.493Z,22.83
2024-05-09T07:33:37.255Z,22.83
2024-05-09T07:34:37.180Z,22.83
2024-05-09T07:35:37.360Z,22.83
2024-05-09T07:36:37.247Z,22.84
2024-05-09T07:37:37.388Z,22.84
2024-05-09T07:38:37.577Z,22.85
2024-05-09T07:39:37.366Z,22.84
2024-05-09T07:40:37.399Z,22.86
2024-05-09T07:41:37.630Z,22.86
2024-05-09T07:42:42.523Z,22.84
2024-05-09T07:43:37.477Z,22.85
2024-05-09T07:44:37.559Z,22.86
2024-05-09T07:45:48.595Z,22.87
2024-05-09T07:47:47.319Z,22.87
2024-05-09T07:48:58.078Z,22.87
2024-05-09T07:53:33.823Z,22.88
2024-05-09T07:53:43.868Z,22.88
2024-05-09T07:54:38.615Z,22.88
2024-05-09T07:55:37.696Z,22.90
2024-05-09T07:56:37.646Z,22.90
2024-05-09T07:57:37.549Z,22.92
2024-05-09T07:58:37.525Z,22.92
2024-05-09T07:59:38.017Z,22.93
2024-05-09T08:00:37.613Z,22.93
2024-05-09T08:01:37.610Z,22.93
2024-05-09T08:02:37.582Z,22.94
2024-05-09T08:03:37.779Z,22.94
2024-05-09T08:04:37.658Z,22.94
2024-05-09T08:05:37.653Z,22.95
2024-05-09T08:06:37.542Z,22.95
2024-05-09T08:07:37.535Z,22.96
2024-05-09T08:08:37.540Z,22.96
2024-05-09T08:09:38.684Z,22.96
2024-05-09T08:10:37.628Z,22.96
2024-05-09T08:11:37.564Z,22.96
2024-05-09T08:12:37.574Z,22.95
2024-05-09T08:13:37.605Z,22.95
2024-05-09T08:14:37.566Z,22.95
2024-05-09T08:15:37.571Z,22.96
2024-05-09T08:16:37.600Z,22.96
2024-05-09T08:17:37.697Z,22.96
2024-05-09T08:18:37.919Z,22.96
2024-05-09T08:19:37.685Z,22.97
2024-05-09T08:20:37.583Z,22.98
2024-05-09T08:21:37.636Z,22.98
2024-05-09T08:22:37.579Z,23.00
2024-05-09T08:23:37.575Z,23.00
2024-05-09T08:24:37.611Z,23.00
2024-05-09T08:25:37.594Z,23.00
2024-05-09T08:26:37.613Z,23.00
2024-05-09T08:27:37.683Z,22.99
2024-05-09T08:28:37.706Z,22.99
2024-05-09T08:29:37.766Z,22.99
2024-05-09T08:30:38.436Z,22.99
2024-05-09T08:31:37.896Z,22.99
2024-05-09T08:32:37.900Z,22.99
2024-05-09T08:33:38.041Z,23.00
2024-05-09T08:34:38.066Z,23.00
2024-05-09T08:35:38.036Z,23.00
2024-05-09T08:36:38.090Z,23.02
2024-05-09T08:37:40.568Z,23.02
2024-05-09T08:38:38.112Z,23.02
2024-05-09T08:39:38.134Z,23.02
2024-05-09T08:40:38.506Z,23.02
2024-05-09T08:41:38.123Z,23.02
2024-05-09T08:42:38.172Z,23.03
2024-05-09T08:43:39.901Z,23.03
2024-05-09T08:44:38.126Z,23.05
2024-05-09T08:45:38.174Z,23.06
2024-05-09T08:46:38.180Z,23.08
2024-05-09T08:47:38.189Z,23.08
2024-05-09T08:48:38.339Z,23.09
2024-05-09T08:49:39.921Z,23.08
2024-05-09T08:50:39.701Z,23.07
2024-05-09T08:51:38.160Z,23.09
2024-05-09T08:52:38.143Z,23.10
2024-05-09T08:53:38.170Z,23.09
2024-05-09T08:54:38.169Z,23.10
2024-05-09T08:55:40.487Z,23.09
2024-05-09T08:56:38.126Z,23.10
2024-05-09T08:57:38.167Z,23.11
2024-05-09T08:58:38.127Z,23.13
2024-05-09T08:59:38.128Z,23.14
2024-05-09T09:00:38.226Z,23.15
2024-05-09T09:01:39.339Z,23.15
2024-05-09T09:02:38.302Z,23.15
2024-05-09T09:03:38.384Z,23.15
2024-05-09T09:04:38.315Z,23.14
2024-05-09T09:05:38.352Z,23.14
2024-05-09T09:06:38.179Z,23.14
2024-05-09T09:07:38.166Z,23.15
2024-05-09T09:08:38.157Z,23.16
2024-05-09T09:09:38.195Z,23.16
2024-05-09T09:10:38.196Z,23.17
2024-05-09T09:11:38.159Z,23.18
2024-05-09T09:12:38.257Z,23.18
2024-05-09T09:13:38.203Z,23.18
2024-05-09T09:14:38.278Z,23.18
2024-05-09T09:15:38.216Z,23.17
2024-05-09T09:16:38.249Z,23.18
2024-05-09T09:17:38.279Z,23.18
2024-05-09T09:18:38.773Z,23.20
2024-05-09T09:19:38.227Z,23.19
2024-05-09T09:20:38.267Z,23.20
2024-05-09T09:21:38.231Z,23.22
2024-05-09T09:22:38.202Z,23.24
2024-05-09T09:23:38.229Z,23.23
2024-05-09T09:24:38.256Z,23.23
2024-05-09T09:25:38.206Z,23.22
2024-05-09T09:26:38.230Z,23.21
2024-05-09T09:27:38.245Z,23.21
2024-05-09T09:28:38.226Z,23.21
2024-05-09T09:29:38.207Z,23.22
2024-05-09T09:30:38.362Z,23.22
2024-05-09T09:31:38.247Z,23.22
2024-05-09T09:32:38.331Z,23.24
2024-05-09T09:33:38.379Z,23.25
2024-05-09T09:34:38.277Z,23.26
2024-05-09T09:35:38.239Z,23.27
2024-05-09T09:36:38.257Z,23.28
2024-05-09T09:37:38.227Z,23.29
2024-05-09T09:38:38.231Z,23.29
2024-05-09T09:39:38.290Z,23.30
2024-05-09T09:40:42.535Z,23.30
2024-05-09T09:41:39.256Z,23.31
2024-05-09T09:42:38.340Z,23.32
2024-05-09T09:43:38.227Z,23.32
2024-05-09T09:44:42.115Z,23.34
2024-05-09T09:45:38.263Z,23.33
2024-05-09T09:46:38.279Z,23.33
2024-05-09T09:47:38.313Z,23.33
2024-05-09T09:48:38.305Z,23.33
2024-05-09T09:49:38.328Z,23.33
2024-05-09T09:50:38.239Z,23.34
2024-05-09T09:51:38.296Z,23.33
2024-05-09T09:52:38.244Z,23.33
2024-05-09T09:53:38.310Z,23.33
2024-05-09T09:54:38.252Z,23.34
2024-05-09T09:55:38.887Z,23.34
2024-05-09T09:56:38.242Z,23.34
2024-05-09T09:57:38.289Z,23.34
2024-05-09T09:58:38.233Z,23.34
2024-05-09T09:59:38.244Z,23.34
2024-05-09T10:00:38.388Z,23.33
2024-05-09T10:01:38.365Z,23.34
2024-05-09T10:02:38.332Z,23.34
2024-05-09T10:03:38.605Z,23.34
2024-05-09T10:04:38.394Z,23.34
2024-05-09T10:05:39.840Z,23.35
2024-05-09T10:06:38.284Z,23.35
2024-05-09T10:07:38.273Z,23.36
2024-05-09T10:08:38.287Z,23.35
2024-05-09T10:09:38.321Z,23.36
2024-05-09T10:10:38.380Z,23.36
2024-05-09T10:11:42.014Z,23.36
2024-05-09T10:12:39.356Z,23.35
2024-05-09T10:13:38.309Z,23.37
2024-05-09T10:14:38.333Z,23.37
2024-05-09T10:15:39.368Z,23.36
2024-05-09T10:16:38.331Z,23.37
2024-05-09T10:17:38.503Z,23.37
2024-05-09T10:18:38.590Z,23.37
2024-05-09T10:19:38.491Z,23.37
2024-05-09T10:20:38.316Z,23.38
2024-05-09T10:21:38.356Z,23.37
2024-05-09T10:22:38.320Z,23.37
2024-05-09T10:23:38.332Z,23.37
2024-05-09T10:24:38.411Z,23.38
2024-05-09T10:25:38.320Z,23.38
2024-05-09T10:26:38.327Z,23.38
2024-05-09T10:27:38.376Z,23.38
2024-05-09T10:28:38.393Z,23.39
2024-05-09T10:29:38.442Z,23.39
2024-05-09T10:30:39.419Z,23.39
2024-05-09T10:31:38.687Z,23.39
2024-05-09T10:32:38.646Z,23.39
2024-05-09T10:33:38.876Z,23.39
2024-05-09T10:34:38.698Z,23.39
2024-05-09T10:35:38.726Z,23.39
2024-05-09T10:36:38.888Z,23.39
2024-05-09T10:37:38.862Z,23.40
2024-05-09T10:38:38.942Z,23.40
2024-05-09T10:39:39.161Z,23.40
2024-05-09T10:40:39.264Z,23.40
2024-05-09T10:41:39.268Z,23.39
2024-05-09T10:42:39.366Z,23.41
2024-05-09T10:43:39.420Z,23.40
2024-05-09T10:44:39.492Z,23.40
2024-05-09T10:45:39.605Z,23.41
2024-05-09T10:46:39.649Z,23.40
2024-05-09T10:47:39.791Z,23.40
2024-05-09T10:48:40.090Z,23.40
2024-05-09T10:49:39.879Z,23.40
2024-05-09T10:50:39.978Z,23.39
2024-05-09T10:51:40.068Z,23.40
2024-05-09T10:52:40.093Z,23.40
2024-05-09T10:53:40.169Z,23.40
2024-05-09T10:54:40.330Z,23.40
2024-05-09T10:55:40.354Z,23.41
2024-05-09T10:56:40.429Z,23.40
2024-05-09T10:57:40.474Z,23.41
2024-05-09T10:58:42.767Z,23.41
2024-05-09T10:59:40.580Z,23.41
2024-05-09T11:00:40.739Z,23.41
2024-05-09T11:01:40.847Z,23.41
2024-05-09T11:02:40.951Z,23.41
2024-05-09T11:03:40.992Z,23.41
2024-05-09T11:04:40.943Z,23.41
2024-05-09T11:05:41.019Z,23.40
2024-05-09T11:06:40.928Z,23.41
2024-05-09T11:07:40.906Z,23.41
2024-05-09T11:08:40.952Z,23.41
2024-05-09T11:09:41.943Z,23.42
2024-05-09T11:10:41.093Z,23.41
2024-05-09T11:11:41.107Z,23.41
2024-05-09T11:12:41.151Z,23.42
2024-05-09T11:13:41.140Z,23.42
2024-05-09T11:14:41.164Z,23.42
2024-05-09T11:15:41.304Z,23.42
2024-05-09T11:16:41.279Z,23.41
2024-05-09T11:17:41.579Z,23.42
2024-05-09T11:18:41.599Z,23.42
2024-05-09T11:19:41.609Z,23.42
2024-05-09T11:20:41.696Z,23.42
2024-05-09T11:21:41.728Z,23.42
2024-05-09T11:22:41.769Z,23.42
2024-05-09T11:23:41.971Z,23.42
2024-05-09T11:24:41.949Z,23.42
2024-05-09T11:25:41.979Z,23.43
2024-05-09T11:26:42.066Z,23.43
2024-05-09T11:27:42.172Z,23.43
2024-05-09T11:28:42.274Z,23.43
2024-05-09T11:29:42.334Z,23.43
2024-05-09T11:30:42.440Z,23.43
2024-05-09T11:31:42.543Z,23.43
2024-05-09T11:32:42.751Z,23.44
2024-05-09T11:33:42.884Z,23.45
2024-05-09T11:34:42.967Z,23.45
2024-05-09T11:35:42.849Z,23.45
2024-05-09T11:36:43.097Z,23.45
2024-05-09T11:37:43.030Z,23.45
2024-05-09T11:38:43.296Z,23.45
2024-05-09T11:39:43.207Z,23.46
2024-05-09T11:40:43.359Z,23.46
2024-05-09T11:41:43.394Z,23.45
2024-05-09T11:42:43.473Z,23.45
2024-05-09T11:43:43.480Z,23.45
2024-05-09T11:44:43.577Z,23.46
2024-05-09T11:45:51.039Z,23.43
2024-05-09T11:46:50.974Z,23.44
2024-05-09T11:47:51.027Z,23.45
2024-05-09T11:48:51.135Z,23.45
2024-05-09T11:49:51.042Z,23.45
2024-05-09T11:50:51.034Z,23.45
2024-05-09T11:51:51.153Z,23.46
2024-05-09T11:52:51.195Z,23.47
2024-05-09T11:53:51.267Z,23.47
2024-05-09T11:54:51.401Z,23.48
2024-05-09T11:55:51.442Z,23.48
2024-05-09T11:56:51.522Z,23.48
2024-05-09T11:57:51.662Z,23.49
2024-05-09T11:58:51.670Z,23.48
2024-05-09T11:59:51.767Z,23.48
2024-05-09T12:00:52.004Z,23.48
2024-05-09T12:01:52.017Z,23.49
2024-05-09T12:02:52.123Z,23.48
2024-05-09T12:03:52.435Z,23.48
2024-05-09T12:04:52.279Z,23.48
2024-05-09T12:05:52.310Z,23.48
2024-05-09T12:06:52.223Z,23.49
2024-05-09T12:07:52.226Z,23.48
2024-05-09T12:08:52.247Z,23.48
2024-05-09T12:09:52.341Z,23.48
2024-05-09T12:10:52.445Z,23.48
2024-05-09T12:11:52.441Z,23.49
2024-05-09T12:12:52.488Z,23.49
2024-05-09T12:13:52.452Z,23.50
2024-05-09T12:14:52.494Z,23.50
2024-05-09T12:15:52.550Z,23.49
2024-05-09T12:16:52.563Z,23.50
2024-05-09T12:17:52.710Z,23.50
2024-05-09T12:18:52.907Z,23.50
2024-05-09T12:19:52.814Z,23.50
2024-05-09T12:20:52.908Z,23.50
2024-05-09T12:21:52.997Z,23.49
2024-05-09T12:22:53.061Z,23.50
2024-05-09T12:23:53.173Z,23.49
2024-05-09T12:24:53.287Z,23.50
2024-05-09T12:25:53.310Z,23.50
2024-05-09T12:26:53.416Z,23.50
2024-05-09T12:27:53.530Z,23.50
2024-05-09T12:28:53.557Z,23.50
2024-05-09T12:29:53.670Z,23.51
2024-05-09T12:30:53.751Z,23.51
2024-05-09T12:31:53.827Z,23.51
2024-05-09T12:32:54.047Z,23.52
2024-05-09T12:33:54.258Z,23.51
2024-05-09T12:34:54.090Z,23.52
2024-05-09T12:35:54.200Z,23.52
2024-05-09T12:36:54.279Z,23.52
2024-05-09T12:37:54.352Z,23.52
2024-05-09T12:38:54.429Z,23.53
2024-05-09T12:39:54.557Z,23.52
2024-05-09T12:40:54.823Z,23.52
2024-05-09T12:41:54.746Z,23.53
2024-05-09T12:42:54.877Z,23.53
2024-05-09T12:43:54.906Z,23.53
2024-05-09T12:44:54.985Z,23.53
2024-05-09T12:45:55.187Z,23.53
2024-05-09T12:46:55.154Z,23.54
2024-05-09T12:47:55.342Z,23.53
2024-05-09T12:48:55.452Z,23.53
2024-05-09T12:49:55.493Z,23.54
2024-05-09T12:50:55.533Z,23.53
2024-05-09T12:51:55.680Z,23.54
2024-05-09T12:52:55.695Z,23.53
2024-05-09T12:53:55.786Z,23.54
2024-05-09T12:54:55.917Z,23.53
2024-05-09T12:56:00.128Z,23.54
2024-05-09T12:56:56.959Z,23.53
2024-05-09T12:57:56.000Z,23.54
2024-05-09T12:58:55.985Z,23.53